sensor_id;sensor_type;location;lat;lon;timestamp;P1;durP1;ratioP1;P2;durP2;ratioP2
12878;SDS011;20617;49.476;10.986;2023-04-24T00:01:06;3.22;;;1.60;;
12878;SDS011;20617;49.476;10.986;2023-04-24T00:03:12;2.45;;;1.90;;
12878;SDS011;20617;49.476;10.986;2023-04-24T00:05:17;2.65;;;1.90;;
12878;SDS011;20617;49.476;10.986;2023-04-24T00:07:22;1.65;;;1.20;;
12878;SDS011;20617;49.476;10.986;2023-04-24T00:09:27;4.63;;;2.47;;
12878;SDS011;20617;49.476;10.986;2023-04-24T00:11:32;4.10;;;1.70;;
12878;SDS011;20617;49.476;10.986;2023-04-24T00:13:37;4.07;;;1.98;;
12878;SDS011;20617;49.476;10.986;2023-04-24T00:17:49;1.60;;;1.50;;
12878;SDS011;20617;49.476;10.986;2023-04-24T00:22:00;2.88;;;1.63;;
12878;SDS011;20617;49.476;10.986;2023-04-24T00:24:06;3.05;;;1.60;;
12878;SDS011;20617;49.476;10.986;2023-04-24T00:26:12;3.38;;;1.73;;
12878;SDS011;20617;49.476;10.986;2023-04-24T00:28:17;2.33;;;1.48;;
12878;SDS011;20617;49.476;10.986;2023-04-24T00:30:22;3.10;;;1.73;;
12878;SDS011;20617;49.476;10.986;2023-04-24T00:32:30;3.20;;;1.27;;
12878;SDS011;20617;49.476;10.986;2023-04-24T00:34:35;2.33;;;1.40;;
12878;SDS011;20617;49.476;10.986;2023-04-24T00:36:41;1.50;;;1.40;;
12878;SDS011;20617;49.476;10.986;2023-04-24T00:38:46;3.67;;;1.83;;
12878;SDS011;20617;49.476;10.986;2023-04-24T00:40:51;1.83;;;1.30;;
12878;SDS011;20617;49.476;10.986;2023-04-24T00:45:01;2.00;;;1.67;;
12878;SDS011;20617;49.476;10.986;2023-04-24T00:47:10;3.03;;;1.40;;
12878;SDS011;20617;49.476;10.986;2023-04-24T00:49:21;3.47;;;1.40;;
12878;SDS011;20617;49.476;10.986;2023-04-24T00:51:27;1.45;;;1.27;;
12878;SDS011;20617;49.476;10.986;2023-04-24T00:53:32;2.17;;;1.20;;
12878;SDS011;20617;49.476;10.986;2023-04-24T00:55:37;1.65;;;1.20;;
12878;SDS011;20617;49.476;10.986;2023-04-24T00:57:42;2.58;;;1.30;;
12878;SDS011;20617;49.476;10.986;2023-04-24T00:59:48;1.60;;;1.30;;
12878;SDS011;20617;49.476;10.986;2023-04-24T01:01:53;1.48;;;1.00;;
12878;SDS011;20617;49.476;10.986;2023-04-24T01:03:59;1.77;;;1.23;;
12878;SDS011;20617;49.476;10.986;2023-04-24T01:06:08;1.40;;;1.00;;
12878;SDS011;20617;49.476;10.986;2023-04-24T01:08:14;2.20;;;1.25;;
12878;SDS011;20617;49.476;10.986;2023-04-24T01:10:20;1.13;;;1.00;;
12878;SDS011;20617;49.476;10.986;2023-04-24T01:12:26;2.40;;;1.40;;
12878;SDS011;20617;49.476;10.986;2023-04-24T01:14:31;2.17;;;1.17;;
12878;SDS011;20617;49.476;10.986;2023-04-24T01:16:37;1.25;;;1.10;;
12878;SDS011;20617;49.476;10.986;2023-04-24T01:18:43;2.13;;;0.90;;
12878;SDS011;20617;49.476;10.986;2023-04-24T01:23:00;1.27;;;1.17;;
12878;SDS011;20617;49.476;10.986;2023-04-24T01:25:06;5.45;;;2.03;;
12878;SDS011;20617;49.476;10.986;2023-04-24T01:27:11;2.80;;;1.65;;
12878;SDS011;20617;49.476;10.986;2023-04-24T01:29:19;2.08;;;1.30;;
12878;SDS011;20617;49.476;10.986;2023-04-24T01:31:25;1.65;;;1.55;;
12878;SDS011;20617;49.476;10.986;2023-04-24T01:35:35;2.40;;;1.52;;
12878;SDS011;20617;49.476;10.986;2023-04-24T01:37:41;2.80;;;1.15;;
12878;SDS011;20617;49.476;10.986;2023-04-24T01:39:49;1.92;;;1.20;;
12878;SDS011;20617;49.476;10.986;2023-04-24T01:41:54;1.40;;;1.30;;
12878;SDS011;20617;49.476;10.986;2023-04-24T01:43:59;2.85;;;1.08;;
12878;SDS011;20617;49.476;10.986;2023-04-24T01:46:05;2.20;;;1.10;;
12878;SDS011;20617;49.476;10.986;2023-04-24T01:48:10;2.08;;;0.90;;
12878;SDS011;20617;49.476;10.986;2023-04-24T01:50:16;1.30;;;0.90;;
12878;SDS011;20617;49.476;10.986;2023-04-24T01:52:22;1.20;;;1.05;;
12878;SDS011;20617;49.476;10.986;2023-04-24T01:54:28;1.85;;;1.10;;
12878;SDS011;20617;49.476;10.986;2023-04-24T01:56:36;0.80;;;0.73;;
12878;SDS011;20617;49.476;10.986;2023-04-24T01:58:45;1.00;;;0.93;;
12878;SDS011;20617;49.476;10.986;2023-04-24T02:02:54;1.73;;;0.95;;
12878;SDS011;20617;49.476;10.986;2023-04-24T02:05:00;0.70;;;0.70;;
12878;SDS011;20617;49.476;10.986;2023-04-24T02:07:05;0.95;;;0.80;;
12878;SDS011;20617;49.476;10.986;2023-04-24T02:09:10;3.05;;;1.05;;
12878;SDS011;20617;49.476;10.986;2023-04-24T02:11:15;2.03;;;1.02;;
12878;SDS011;20617;49.476;10.986;2023-04-24T02:13:23;1.83;;;0.77;;
12878;SDS011;20617;49.476;10.986;2023-04-24T02:15:28;1.23;;;0.70;;
12878;SDS011;20617;49.476;10.986;2023-04-24T02:17:33;4.38;;;1.08;;
12878;SDS011;20617;49.476;10.986;2023-04-24T02:19:38;1.23;;;0.80;;
12878;SDS011;20617;49.476;10.986;2023-04-24T02:21:44;0.90;;;0.70;;
12878;SDS011;20617;49.476;10.986;2023-04-24T02:23:49;0.75;;;0.70;;
12878;SDS011;20617;49.476;10.986;2023-04-24T02:25:54;0.85;;;0.80;;
12878;SDS011;20617;49.476;10.986;2023-04-24T02:27:59;1.42;;;1.20;;
12878;SDS011;20617;49.476;10.986;2023-04-24T02:30:07;2.42;;;1.00;;
12878;SDS011;20617;49.476;10.986;2023-04-24T02:32:13;3.03;;;1.58;;
12878;SDS011;20617;49.476;10.986;2023-04-24T02:36:24;1.10;;;0.90;;
12878;SDS011;20617;49.476;10.986;2023-04-24T02:38:29;1.45;;;1.10;;
12878;SDS011;20617;49.476;10.986;2023-04-24T02:40:34;2.50;;;1.17;;
12878;SDS011;20617;49.476;10.986;2023-04-24T02:42:39;2.05;;;1.00;;
12878;SDS011;20617;49.476;10.986;2023-04-24T02:44:44;1.00;;;0.82;;
12878;SDS011;20617;49.476;10.986;2023-04-24T02:46:52;1.33;;;0.90;;
12878;SDS011;20617;49.476;10.986;2023-04-24T02:48:57;1.13;;;0.80;;
12878;SDS011;20617;49.476;10.986;2023-04-24T02:51:02;5.03;;;1.23;;
12878;SDS011;20617;49.476;10.986;2023-04-24T02:53:08;2.08;;;0.85;;
12878;SDS011;20617;49.476;10.986;2023-04-24T02:55:13;0.98;;;0.68;;
12878;SDS011;20617;49.476;10.986;2023-04-24T02:57:18;2.22;;;0.95;;
12878;SDS011;20617;49.476;10.986;2023-04-24T02:59:23;1.42;;;0.80;;
12878;SDS011;20617;49.476;10.986;2023-04-24T03:01:30;0.88;;;0.80;;
12878;SDS011;20617;49.476;10.986;2023-04-24T03:03:38;1.38;;;1.00;;
12878;SDS011;20617;49.476;10.986;2023-04-24T03:05:44;0.80;;;0.70;;
12878;SDS011;20617;49.476;10.986;2023-04-24T03:07:49;1.30;;;0.90;;
12878;SDS011;20617;49.476;10.986;2023-04-24T03:09:55;1.75;;;0.95;;
12878;SDS011;20617;49.476;10.986;2023-04-24T03:12:00;1.60;;;1.10;;
12878;SDS011;20617;49.476;10.986;2023-04-24T03:14:05;3.53;;;1.00;;
12878;SDS011;20617;49.476;10.986;2023-04-24T03:16:12;1.92;;;1.00;;
12878;SDS011;20617;49.476;10.986;2023-04-24T03:18:17;2.08;;;1.00;;
12878;SDS011;20617;49.476;10.986;2023-04-24T03:20:26;1.77;;;1.08;;
12878;SDS011;20617;49.476;10.986;2023-04-24T03:22:32;4.00;;;1.10;;
12878;SDS011;20617;49.476;10.986;2023-04-24T03:24:40;1.13;;;0.90;;
12878;SDS011;20617;49.476;10.986;2023-04-24T03:26:48;1.90;;;0.93;;
12878;SDS011;20617;49.476;10.986;2023-04-24T03:29:11;3.47;;;1.23;;
12878;SDS011;20617;49.476;10.986;2023-04-24T03:31:16;4.28;;;1.30;;
12878;SDS011;20617;49.476;10.986;2023-04-24T03:33:22;3.67;;;0.95;;
12878;SDS011;20617;49.476;10.986;2023-04-24T03:35:36;1.25;;;0.90;;
12878;SDS011;20617;49.476;10.986;2023-04-24T03:37:43;1.50;;;1.20;;
12878;SDS011;20617;49.476;10.986;2023-04-24T03:40:12;1.92;;;1.10;;
12878;SDS011;20617;49.476;10.986;2023-04-24T03:44:29;3.20;;;1.20;;
12878;SDS011;20617;49.476;10.986;2023-04-24T03:46:34;3.67;;;1.17;;
12878;SDS011;20617;49.476;10.986;2023-04-24T03:48:40;1.75;;;1.33;;
12878;SDS011;20617;49.476;10.986;2023-04-24T03:50:48;1.80;;;1.40;;
12878;SDS011;20617;49.476;10.986;2023-04-24T03:52:53;1.17;;;0.93;;
12878;SDS011;20617;49.476;10.986;2023-04-24T03:55:08;1.50;;;1.00;;
12878;SDS011;20617;49.476;10.986;2023-04-24T03:57:19;2.78;;;1.20;;
12878;SDS011;20617;49.476;10.986;2023-04-24T03:59:36;1.38;;;1.10;;
12878;SDS011;20617;49.476;10.986;2023-04-24T04:01:50;1.60;;;1.15;;
12878;SDS011;20617;49.476;10.986;2023-04-24T04:03:55;1.83;;;1.13;;
12878;SDS011;20617;49.476;10.986;2023-04-24T04:06:04;1.48;;;0.98;;
12878;SDS011;20617;49.476;10.986;2023-04-24T04:08:09;1.90;;;1.10;;
12878;SDS011;20617;49.476;10.986;2023-04-24T04:10:14;2.08;;;1.10;;
12878;SDS011;20617;49.476;10.986;2023-04-24T04:12:19;2.35;;;1.25;;
12878;SDS011;20617;49.476;10.986;2023-04-24T04:14:24;1.63;;;0.90;;
12878;SDS011;20617;49.476;10.986;2023-04-24T04:16:32;2.55;;;1.10;;
12878;SDS011;20617;49.476;10.986;2023-04-24T04:18:39;1.40;;;1.10;;
12878;SDS011;20617;49.476;10.986;2023-04-24T04:20:44;1.63;;;1.20;;
12878;SDS011;20617;49.476;10.986;2023-04-24T04:22:53;2.45;;;1.45;;
12878;SDS011;20617;49.476;10.986;2023-04-24T04:25:09;3.72;;;1.20;;
12878;SDS011;20617;49.476;10.986;2023-04-24T04:27:16;2.50;;;1.42;;
12878;SDS011;20617;49.476;10.986;2023-04-24T04:29:30;2.05;;;1.40;;
12878;SDS011;20617;49.476;10.986;2023-04-24T04:31:40;3.20;;;1.58;;
12878;SDS011;20617;49.476;10.986;2023-04-24T04:33:47;3.53;;;1.38;;
12878;SDS011;20617;49.476;10.986;2023-04-24T04:35:52;2.17;;;1.40;;
12878;SDS011;20617;49.476;10.986;2023-04-24T04:38:05;3.42;;;1.30;;
12878;SDS011;20617;49.476;10.986;2023-04-24T04:40:33;1.83;;;1.40;;
12878;SDS011;20617;49.476;10.986;2023-04-24T04:42:42;4.63;;;1.33;;
12878;SDS011;20617;49.476;10.986;2023-04-24T04:44:48;3.20;;;1.75;;
12878;SDS011;20617;49.476;10.986;2023-04-24T04:46:59;1.48;;;1.20;;
12878;SDS011;20617;49.476;10.986;2023-04-24T04:49:10;2.72;;;1.95;;
12878;SDS011;20617;49.476;10.986;2023-04-24T04:51:19;3.38;;;1.70;;
12878;SDS011;20617;49.476;10.986;2023-04-24T04:53:27;3.15;;;1.90;;
12878;SDS011;20617;49.476;10.986;2023-04-24T04:55:32;2.97;;;1.80;;
12878;SDS011;20617;49.476;10.986;2023-04-24T04:57:49;2.25;;;1.30;;
12878;SDS011;20617;49.476;10.986;2023-04-24T04:59:54;4.32;;;1.55;;
12878;SDS011;20617;49.476;10.986;2023-04-24T05:02:14;2.85;;;1.65;;
12878;SDS011;20617;49.476;10.986;2023-04-24T05:04:20;2.35;;;1.30;;
12878;SDS011;20617;49.476;10.986;2023-04-24T05:06:26;2.20;;;1.40;;
12878;SDS011;20617;49.476;10.986;2023-04-24T05:08:35;1.35;;;1.10;;
12878;SDS011;20617;49.476;10.986;2023-04-24T05:10:56;2.53;;;1.17;;
12878;SDS011;20617;49.476;10.986;2023-04-24T05:13:03;1.58;;;1.40;;
12878;SDS011;20617;49.476;10.986;2023-04-24T05:15:09;4.07;;;1.15;;
12878;SDS011;20617;49.476;10.986;2023-04-24T05:17:14;2.20;;;1.40;;
12878;SDS011;20617;49.476;10.986;2023-04-24T05:19:20;2.80;;;1.30;;
12878;SDS011;20617;49.476;10.986;2023-04-24T05:21:25;3.35;;;1.33;;
12878;SDS011;20617;49.476;10.986;2023-04-24T05:23:30;2.72;;;1.70;;
12878;SDS011;20617;49.476;10.986;2023-04-24T05:25:38;4.22;;;1.88;;
12878;SDS011;20617;49.476;10.986;2023-04-24T05:27:46;2.22;;;1.30;;
12878;SDS011;20617;49.476;10.986;2023-04-24T05:29:52;2.50;;;1.70;;
12878;SDS011;20617;49.476;10.986;2023-04-24T05:31:58;3.47;;;1.88;;
12878;SDS011;20617;49.476;10.986;2023-04-24T05:34:05;1.35;;;1.25;;
12878;SDS011;20617;49.476;10.986;2023-04-24T05:36:14;2.33;;;1.50;;
12878;SDS011;20617;49.476;10.986;2023-04-24T05:38:19;2.40;;;1.85;;
12878;SDS011;20617;49.476;10.986;2023-04-24T05:40:24;2.70;;;1.73;;
12878;SDS011;20617;49.476;10.986;2023-04-24T05:42:31;7.25;;;2.90;;
12878;SDS011;20617;49.476;10.986;2023-04-24T05:44:36;3.67;;;2.03;;
12878;SDS011;20617;49.476;10.986;2023-04-24T05:46:41;2.70;;;1.80;;
12878;SDS011;20617;49.476;10.986;2023-04-24T05:48:47;1.73;;;1.25;;
12878;SDS011;20617;49.476;10.986;2023-04-24T05:50:52;2.05;;;1.60;;
12878;SDS011;20617;49.476;10.986;2023-04-24T05:52:58;2.15;;;1.30;;
12878;SDS011;20617;49.476;10.986;2023-04-24T05:55:09;2.55;;;1.48;;
12878;SDS011;20617;49.476;10.986;2023-04-24T05:57:16;1.83;;;1.50;;
12878;SDS011;20617;49.476;10.986;2023-04-24T05:59:30;2.30;;;1.13;;
12878;SDS011;20617;49.476;10.986;2023-04-24T06:01:36;2.65;;;1.55;;
12878;SDS011;20617;49.476;10.986;2023-04-24T06:03:48;3.72;;;1.58;;
12878;SDS011;20617;49.476;10.986;2023-04-24T06:05:54;2.13;;;1.25;;
12878;SDS011;20617;49.476;10.986;2023-04-24T06:07:59;2.63;;;1.40;;
12878;SDS011;20617;49.476;10.986;2023-04-24T06:10:10;2.95;;;1.25;;
12878;SDS011;20617;49.476;10.986;2023-04-24T06:12:18;2.80;;;1.40;;
12878;SDS011;20617;49.476;10.986;2023-04-24T06:14:36;1.63;;;1.25;;
12878;SDS011;20617;49.476;10.986;2023-04-24T06:16:54;3.08;;;1.20;;
12878;SDS011;20617;49.476;10.986;2023-04-24T06:19:07;1.50;;;1.40;;
12878;SDS011;20617;49.476;10.986;2023-04-24T06:21:12;1.98;;;1.30;;
12878;SDS011;20617;49.476;10.986;2023-04-24T06:23:17;4.07;;;1.50;;
12878;SDS011;20617;49.476;10.986;2023-04-24T06:25:24;2.13;;;1.20;;
12878;SDS011;20617;49.476;10.986;2023-04-24T06:27:29;1.98;;;0.90;;
12878;SDS011;20617;49.476;10.986;2023-04-24T06:29:39;2.30;;;1.20;;
12878;SDS011;20617;49.476;10.986;2023-04-24T06:31:45;3.67;;;1.33;;
12878;SDS011;20617;49.476;10.986;2023-04-24T06:33:50;2.10;;;1.10;;
12878;SDS011;20617;49.476;10.986;2023-04-24T06:35:55;1.33;;;0.93;;
12878;SDS011;20617;49.476;10.986;2023-04-24T06:40:06;2.60;;;1.08;;
12878;SDS011;20617;49.476;10.986;2023-04-24T06:42:11;2.28;;;0.80;;
12878;SDS011;20617;49.476;10.986;2023-04-24T06:44:18;0.88;;;0.70;;
12878;SDS011;20617;49.476;10.986;2023-04-24T06:46:26;0.82;;;0.60;;
12878;SDS011;20617;49.476;10.986;2023-04-24T06:48:31;1.45;;;0.90;;
12878;SDS011;20617;49.476;10.986;2023-04-24T06:50:36;1.75;;;0.75;;
12878;SDS011;20617;49.476;10.986;2023-04-24T06:52:41;1.27;;;0.98;;
12878;SDS011;20617;49.476;10.986;2023-04-24T06:56:51;1.95;;;1.08;;
12878;SDS011;20617;49.476;10.986;2023-04-24T06:58:57;1.23;;;0.77;;
12878;SDS011;20617;49.476;10.986;2023-04-24T07:01:01;1.92;;;1.13;;
12878;SDS011;20617;49.476;10.986;2023-04-24T07:05:14;1.33;;;1.00;;
12878;SDS011;20617;49.476;10.986;2023-04-24T07:07:21;2.03;;;1.17;;
12878;SDS011;20617;49.476;10.986;2023-04-24T07:09:26;2.92;;;0.95;;
12878;SDS011;20617;49.476;10.986;2023-04-24T07:13:39;1.85;;;0.85;;
12878;SDS011;20617;49.476;10.986;2023-04-24T07:15:45;1.52;;;0.90;;
12878;SDS011;20617;49.476;10.986;2023-04-24T07:17:52;3.58;;;1.20;;
12878;SDS011;20617;49.476;10.986;2023-04-24T07:22:05;0.80;;;0.80;;
12878;SDS011;20617;49.476;10.986;2023-04-24T07:24:10;2.13;;;1.02;;
12878;SDS011;20617;49.476;10.986;2023-04-24T07:26:15;1.65;;;1.08;;
12878;SDS011;20617;49.476;10.986;2023-04-24T07:28:20;1.15;;;1.05;;
12878;SDS011;20617;49.476;10.986;2023-04-24T07:30:26;3.38;;;1.35;;
12878;SDS011;20617;49.476;10.986;2023-04-24T07:32:31;1.65;;;1.20;;
12878;SDS011;20617;49.476;10.986;2023-04-24T07:34:36;1.60;;;1.30;;
12878;SDS011;20617;49.476;10.986;2023-04-24T07:36:44;2.28;;;1.27;;
12878;SDS011;20617;49.476;10.986;2023-04-24T07:38:50;2.33;;;1.42;;
12878;SDS011;20617;49.476;10.986;2023-04-24T07:40:55;2.92;;;1.50;;
12878;SDS011;20617;49.476;10.986;2023-04-24T07:43:00;2.35;;;1.40;;
12878;SDS011;20617;49.476;10.986;2023-04-24T07:47:10;2.50;;;1.40;;
12878;SDS011;20617;49.476;10.986;2023-04-24T07:49:16;2.17;;;1.30;;
12878;SDS011;20617;49.476;10.986;2023-04-24T07:51:21;2.33;;;1.40;;
12878;SDS011;20617;49.476;10.986;2023-04-24T07:53:30;2.75;;;1.45;;
12878;SDS011;20617;49.476;10.986;2023-04-24T07:55:35;2.92;;;1.30;;
12878;SDS011;20617;49.476;10.986;2023-04-24T07:57:42;2.10;;;1.25;;
12878;SDS011;20617;49.476;10.986;2023-04-24T07:59:47;2.75;;;1.80;;
12878;SDS011;20617;49.476;10.986;2023-04-24T08:01:52;2.15;;;1.30;;
12878;SDS011;20617;49.476;10.986;2023-04-24T08:03:57;3.00;;;1.67;;
12878;SDS011;20617;49.476;10.986;2023-04-24T08:06:04;1.83;;;1.42;;
12878;SDS011;20617;49.476;10.986;2023-04-24T08:08:09;3.10;;;1.60;;
12878;SDS011;20617;49.476;10.986;2023-04-24T08:10:17;1.92;;;1.60;;
12878;SDS011;20617;49.476;10.986;2023-04-24T08:12:22;1.80;;;1.60;;
12878;SDS011;20617;49.476;10.986;2023-04-24T08:14:27;3.72;;;2.00;;
12878;SDS011;20617;49.476;10.986;2023-04-24T08:16:32;2.35;;;1.77;;
12878;SDS011;20617;49.476;10.986;2023-04-24T08:18:37;19.88;;;2.50;;
12878;SDS011;20617;49.476;10.986;2023-04-24T08:22:47;2.30;;;1.80;;
12878;SDS011;20617;49.476;10.986;2023-04-24T08:24:52;2.67;;;2.20;;
12878;SDS011;20617;49.476;10.986;2023-04-24T08:29:07;2.92;;;1.80;;
12878;SDS011;20617;49.476;10.986;2023-04-24T08:33:17;4.18;;;1.80;;
12878;SDS011;20617;49.476;10.986;2023-04-24T08:35:22;2.83;;;2.08;;
12878;SDS011;20617;49.476;10.986;2023-04-24T08:39:32;3.40;;;2.25;;
12878;SDS011;20617;49.476;10.986;2023-04-24T08:41:37;3.15;;;2.17;;
12878;SDS011;20617;49.476;10.986;2023-04-24T08:43:48;3.60;;;1.83;;
12878;SDS011;20617;49.476;10.986;2023-04-24T08:45:55;2.72;;;1.80;;
12878;SDS011;20617;49.476;10.986;2023-04-24T08:48:01;4.97;;;1.85;;
12878;SDS011;20617;49.476;10.986;2023-04-24T08:50:26;3.83;;;2.28;;
12878;SDS011;20617;49.476;10.986;2023-04-24T08:52:33;3.40;;;2.10;;
12878;SDS011;20617;49.476;10.986;2023-04-24T08:54:38;3.17;;;1.55;;
12878;SDS011;20617;49.476;10.986;2023-04-24T08:56:47;3.20;;;1.85;;
12878;SDS011;20617;49.476;10.986;2023-04-24T08:58:55;3.35;;;1.85;;
12878;SDS011;20617;49.476;10.986;2023-04-24T09:01:01;4.55;;;1.98;;
12878;SDS011;20617;49.476;10.986;2023-04-24T09:03:07;2.58;;;1.70;;
12878;SDS011;20617;49.476;10.986;2023-04-24T09:05:12;3.72;;;2.33;;
12878;SDS011;20617;49.476;10.986;2023-04-24T09:07:19;4.22;;;2.10;;
12878;SDS011;20617;49.476;10.986;2023-04-24T09:09:26;2.50;;;2.13;;
12878;SDS011;20617;49.476;10.986;2023-04-24T09:11:35;5.35;;;1.83;;
12878;SDS011;20617;49.476;10.986;2023-04-24T09:13:41;5.18;;;1.90;;
12878;SDS011;20617;49.476;10.986;2023-04-24T09:15:50;3.55;;;1.88;;
12878;SDS011;20617;49.476;10.986;2023-04-24T09:17:59;3.67;;;2.08;;
12878;SDS011;20617;49.476;10.986;2023-04-24T09:20:04;3.33;;;1.80;;
12878;SDS011;20617;49.476;10.986;2023-04-24T09:22:10;5.50;;;1.85;;
12878;SDS011;20617;49.476;10.986;2023-04-24T09:24:17;2.67;;;1.80;;
12878;SDS011;20617;49.476;10.986;2023-04-24T09:26:24;2.33;;;1.90;;
12878;SDS011;20617;49.476;10.986;2023-04-24T09:30:35;3.80;;;2.00;;
12878;SDS011;20617;49.476;10.986;2023-04-24T09:32:42;5.07;;;2.13;;
12878;SDS011;20617;49.476;10.986;2023-04-24T09:34:47;2.03;;;1.85;;
12878;SDS011;20617;49.476;10.986;2023-04-24T09:36:53;3.88;;;1.85;;
12878;SDS011;20617;49.476;10.986;2023-04-24T09:38:59;2.53;;;1.98;;
12878;SDS011;20617;49.476;10.986;2023-04-24T09:41:05;2.80;;;2.00;;
12878;SDS011;20617;49.476;10.986;2023-04-24T09:43:12;2.75;;;1.77;;
12878;SDS011;20617;49.476;10.986;2023-04-24T09:47:22;3.00;;;1.60;;
12878;SDS011;20617;49.476;10.986;2023-04-24T09:49:30;2.95;;;1.58;;
12878;SDS011;20617;49.476;10.986;2023-04-24T09:51:37;1.48;;;1.38;;
12878;SDS011;20617;49.476;10.986;2023-04-24T09:53:45;1.98;;;1.42;;
12878;SDS011;20617;49.476;10.986;2023-04-24T09:56:01;2.33;;;1.60;;
12878;SDS011;20617;49.476;10.986;2023-04-24T09:58:07;2.88;;;1.63;;
12878;SDS011;20617;49.476;10.986;2023-04-24T10:02:19;2.17;;;1.42;;
12878;SDS011;20617;49.476;10.986;2023-04-24T10:04:26;3.83;;;1.20;;
12878;SDS011;20617;49.476;10.986;2023-04-24T10:06:35;1.45;;;1.05;;
12878;SDS011;20617;49.476;10.986;2023-04-24T10:08:43;1.00;;;0.90;;
12878;SDS011;20617;49.476;10.986;2023-04-24T10:10:48;2.53;;;1.30;;
12878;SDS011;20617;49.476;10.986;2023-04-24T10:12:53;1.48;;;1.00;;
12878;SDS011;20617;49.476;10.986;2023-04-24T10:14:59;3.50;;;1.15;;
12878;SDS011;20617;49.476;10.986;2023-04-24T10:17:07;1.70;;;0.93;;
12878;SDS011;20617;49.476;10.986;2023-04-24T10:21:17;1.55;;;1.13;;
12878;SDS011;20617;49.476;10.986;2023-04-24T10:23:26;1.83;;;0.90;;
12878;SDS011;20617;49.476;10.986;2023-04-24T10:25:32;3.15;;;1.17;;
12878;SDS011;20617;49.476;10.986;2023-04-24T10:27:38;2.63;;;1.20;;
12878;SDS011;20617;49.476;10.986;2023-04-24T10:31:50;2.53;;;1.50;;
12878;SDS011;20617;49.476;10.986;2023-04-24T10:33:55;2.10;;;0.98;;
12878;SDS011;20617;49.476;10.986;2023-04-24T10:36:00;4.45;;;0.90;;
12878;SDS011;20617;49.476;10.986;2023-04-24T10:38:06;0.90;;;0.63;;
12878;SDS011;20617;49.476;10.986;2023-04-24T10:40:18;1.10;;;0.80;;
12878;SDS011;20617;49.476;10.986;2023-04-24T10:42:29;2.85;;;0.82;;
12878;SDS011;20617;49.476;10.986;2023-04-24T10:44:35;1.67;;;1.30;;
12878;SDS011;20617;49.476;10.986;2023-04-24T10:46:42;2.47;;;1.10;;
12878;SDS011;20617;49.476;10.986;2023-04-24T10:48:52;3.15;;;1.10;;
12878;SDS011;20617;49.476;10.986;2023-04-24T10:50:57;0.80;;;0.75;;
12878;SDS011;20617;49.476;10.986;2023-04-24T10:55:12;1.85;;;1.10;;
12878;SDS011;20617;49.476;10.986;2023-04-24T10:57:29;1.35;;;1.05;;
12878;SDS011;20617;49.476;10.986;2023-04-24T10:59:35;2.53;;;1.10;;
12878;SDS011;20617;49.476;10.986;2023-04-24T11:01:41;0.82;;;0.82;;
12878;SDS011;20617;49.476;10.986;2023-04-24T11:03:58;1.35;;;0.95;;
12878;SDS011;20617;49.476;10.986;2023-04-24T11:06:05;1.58;;;1.15;;
12878;SDS011;20617;49.476;10.986;2023-04-24T11:08:12;1.73;;;1.10;;
12878;SDS011;20617;49.476;10.986;2023-04-24T11:10:24;0.85;;;0.85;;
12878;SDS011;20617;49.476;10.986;2023-04-24T11:12:32;1.10;;;1.00;;
12878;SDS011;20617;49.476;10.986;2023-04-24T11:17:05;1.50;;;1.00;;
12878;SDS011;20617;49.476;10.986;2023-04-24T11:19:17;1.40;;;1.10;;
12878;SDS011;20617;49.476;10.986;2023-04-24T11:21:30;2.95;;;1.30;;
12878;SDS011;20617;49.476;10.986;2023-04-24T11:23:36;1.73;;;1.20;;
12878;SDS011;20617;49.476;10.986;2023-04-24T11:25:41;2.45;;;1.17;;
12878;SDS011;20617;49.476;10.986;2023-04-24T11:27:52;1.45;;;1.35;;
12878;SDS011;20617;49.476;10.986;2023-04-24T11:30:08;2.00;;;1.40;;
12878;SDS011;20617;49.476;10.986;2023-04-24T11:32:15;3.40;;;1.50;;
12878;SDS011;20617;49.476;10.986;2023-04-24T11:34:28;2.70;;;1.60;;
12878;SDS011;20617;49.476;10.986;2023-04-24T11:36:33;3.10;;;1.50;;
12878;SDS011;20617;49.476;10.986;2023-04-24T11:38:38;2.47;;;1.50;;
12878;SDS011;20617;49.476;10.986;2023-04-24T11:40:45;1.83;;;1.55;;
12878;SDS011;20617;49.476;10.986;2023-04-24T11:42:53;4.00;;;1.70;;
12878;SDS011;20617;49.476;10.986;2023-04-24T11:45:01;2.42;;;1.83;;
12878;SDS011;20617;49.476;10.986;2023-04-24T11:47:07;3.05;;;1.70;;
12878;SDS011;20617;49.476;10.986;2023-04-24T11:49:12;2.95;;;2.00;;
12878;SDS011;20617;49.476;10.986;2023-04-24T11:51:18;4.03;;;1.70;;
12878;SDS011;20617;49.476;10.986;2023-04-24T11:53:23;2.88;;;1.50;;
12878;SDS011;20617;49.476;10.986;2023-04-24T11:55:28;1.67;;;1.45;;
12878;SDS011;20617;49.476;10.986;2023-04-24T11:57:33;1.95;;;1.30;;
12878;SDS011;20617;49.476;10.986;2023-04-24T11:59:41;2.15;;;1.20;;
12878;SDS011;20617;49.476;10.986;2023-04-24T12:01:46;1.50;;;1.38;;
12878;SDS011;20617;49.476;10.986;2023-04-24T12:03:59;1.23;;;1.13;;
12878;SDS011;20617;49.476;10.986;2023-04-24T12:06:05;2.10;;;1.60;;
12878;SDS011;20617;49.476;10.986;2023-04-24T12:08:10;3.00;;;2.05;;
12878;SDS011;20617;49.476;10.986;2023-04-24T12:10:19;2.00;;;1.58;;
12878;SDS011;20617;49.476;10.986;2023-04-24T12:12:25;2.75;;;1.70;;
12878;SDS011;20617;49.476;10.986;2023-04-24T12:14:31;2.65;;;1.80;;
12878;SDS011;20617;49.476;10.986;2023-04-24T12:16:40;2.13;;;1.52;;
12878;SDS011;20617;49.476;10.986;2023-04-24T12:18:48;6.70;;;1.83;;
12878;SDS011;20617;49.476;10.986;2023-04-24T12:20:55;2.58;;;1.85;;
12878;SDS011;20617;49.476;10.986;2023-04-24T12:25:44;2.28;;;1.80;;
12878;SDS011;20617;49.476;10.986;2023-04-24T12:27:52;3.17;;;2.17;;
12878;SDS011;20617;49.476;10.986;2023-04-24T12:29:59;2.35;;;1.88;;
12878;SDS011;20617;49.476;10.986;2023-04-24T12:32:17;2.83;;;1.70;;
12878;SDS011;20617;49.476;10.986;2023-04-24T12:34:23;2.25;;;1.60;;
12878;SDS011;20617;49.476;10.986;2023-04-24T12:36:29;2.67;;;1.50;;
12878;SDS011;20617;49.476;10.986;2023-04-24T12:38:34;2.30;;;1.50;;
12878;SDS011;20617;49.476;10.986;2023-04-24T12:40:42;1.35;;;1.23;;
12878;SDS011;20617;49.476;10.986;2023-04-24T12:42:48;3.15;;;2.00;;
12878;SDS011;20617;49.476;10.986;2023-04-24T12:44:56;2.00;;;1.65;;
12878;SDS011;20617;49.476;10.986;2023-04-24T12:47:03;1.85;;;1.20;;
12878;SDS011;20617;49.476;10.986;2023-04-24T12:49:11;1.30;;;1.10;;
12878;SDS011;20617;49.476;10.986;2023-04-24T12:51:17;4.60;;;1.70;;
12878;SDS011;20617;49.476;10.986;2023-04-24T12:53:22;1.90;;;1.25;;
12878;SDS011;20617;49.476;10.986;2023-04-24T12:55:28;3.00;;;1.30;;
12878;SDS011;20617;49.476;10.986;2023-04-24T12:57:33;2.90;;;1.30;;
12878;SDS011;20617;49.476;10.986;2023-04-24T12:59:39;2.38;;;1.52;;
12878;SDS011;20617;49.476;10.986;2023-04-24T13:01:45;1.88;;;1.52;;
12878;SDS011;20617;49.476;10.986;2023-04-24T13:03:50;2.63;;;1.55;;
12878;SDS011;20617;49.476;10.986;2023-04-24T13:05:57;1.80;;;1.40;;
12878;SDS011;20617;49.476;10.986;2023-04-24T13:08:02;1.98;;;1.20;;
12878;SDS011;20617;49.476;10.986;2023-04-24T13:12:14;2.67;;;1.92;;
12878;SDS011;20617;49.476;10.986;2023-04-24T13:14:20;1.90;;;1.40;;
12878;SDS011;20617;49.476;10.986;2023-04-24T13:16:25;3.35;;;1.88;;
12878;SDS011;20617;49.476;10.986;2023-04-24T13:18:30;3.28;;;1.65;;
12878;SDS011;20617;49.476;10.986;2023-04-24T13:20:35;3.55;;;1.45;;
12878;SDS011;20617;49.476;10.986;2023-04-24T13:22:44;2.10;;;1.50;;
12878;SDS011;20617;49.476;10.986;2023-04-24T13:24:49;3.90;;;1.50;;
12878;SDS011;20617;49.476;10.986;2023-04-24T13:28:59;3.88;;;2.03;;
12878;SDS011;20617;49.476;10.986;2023-04-24T13:31:05;1.70;;;1.40;;
12878;SDS011;20617;49.476;10.986;2023-04-24T13:35:14;2.42;;;1.60;;